createdAt,value
2023-03-15T00:01:04.494Z,53.71
2023-03-15T00:03:31.200Z,53.42
2023-03-15T00:05:57.755Z,52.96
2023-03-15T00:08:24.244Z,53.27
2023-03-15T00:10:50.747Z,52.96
2023-03-15T00:13:18.209Z,53.19
2023-03-15T00:15:46.344Z,53.24
2023-03-15T00:18:13.198Z,53.47
2023-03-15T00:20:39.876Z,52.86
2023-03-15T00:23:06.470Z,53.58
2023-03-15T00:25:32.949Z,53.00
2023-03-15T00:27:59.496Z,53.28
2023-03-15T00:30:26.295Z,53.39
2023-03-15T00:32:56.376Z,53.96
2023-03-15T00:35:23.972Z,55.17
2023-03-15T00:37:54.764Z,56.36
2023-03-15T00:40:21.831Z,60.13
2023-03-15T00:42:50.188Z,62.48
2023-03-15T00:45:20.419Z,63.35
2023-03-15T00:47:51.073Z,64.83
2023-03-15T00:50:18.089Z,65.99
2023-03-15T00:52:44.596Z,66.74
2023-03-15T00:55:13.729Z,66.87
2023-03-15T00:57:41.666Z,67.27
2023-03-15T01:00:10.280Z,66.70
2023-03-15T01:02:37.766Z,67.33
2023-03-15T01:05:06.221Z,67.07
2023-03-15T01:07:35.799Z,65.64
2023-03-15T01:10:04.970Z,64.66
2023-03-15T01:12:34.658Z,64.18
2023-03-15T01:15:02.230Z,62.98
2023-03-15T01:17:29.003Z,63.19
2023-03-15T01:19:55.646Z,63.03
2023-03-15T01:22:22.240Z,62.31
2023-03-15T01:24:48.715Z,62.42
2023-03-15T01:27:15.379Z,62.08
2023-03-15T01:29:42.312Z,62.86
2023-03-15T01:32:09.993Z,63.11
2023-03-15T01:34:36.722Z,63.04
2023-03-15T01:37:04.569Z,62.87
2023-03-15T01:39:40.788Z,62.37
2023-03-15T01:42:07.985Z,62.50
2023-03-15T01:44:48.507Z,61.98
2023-03-15T01:47:14.973Z,62.03
2023-03-15T01:49:42.504Z,62.40
2023-03-15T01:52:12.989Z,62.37
2023-03-15T01:54:53.714Z,62.48
2023-03-15T01:57:32.052Z,61.80
2023-03-15T02:00:10.456Z,61.77
2023-03-15T02:02:46.466Z,62.18
2023-03-15T02:05:21.685Z,62.00
2023-03-15T02:07:54.598Z,61.55
2023-03-15T02:10:30.703Z,61.93
2023-03-15T02:13:00.619Z,61.68
2023-03-15T02:15:27.331Z,61.34
2023-03-15T02:17:54.264Z,61.26
2023-03-15T02:20:27.322Z,61.71
2023-03-15T02:22:55.613Z,61.35
2023-03-15T02:25:30.007Z,61.90
2023-03-15T02:27:57.286Z,61.79
2023-03-15T02:30:24.160Z,61.90
2023-03-15T02:32:50.692Z,62.32
2023-03-15T02:35:24.758Z,62.24
2023-03-15T02:37:52.362Z,62.63
2023-03-15T02:40:20.515Z,62.37
2023-03-15T02:42:48.688Z,62.16
2023-03-15T02:45:15.424Z,62.39
2023-03-15T02:47:41.885Z,62.46
2023-03-15T02:50:08.807Z,62.80
2023-03-15T02:52:35.249Z,62.63
2023-03-15T02:55:02.273Z,62.53
2023-03-15T02:57:29.192Z,62.48
2023-03-15T02:59:57.237Z,62.29
2023-03-15T03:02:24.075Z,62.55
2023-03-15T03:04:52.727Z,62.26
2023-03-15T03:07:19.536Z,62.32
2023-03-15T03:09:54.221Z,62.63
2023-03-15T03:12:21.831Z,62.42
2023-03-15T03:14:48.341Z,62.63
2023-03-15T03:17:17.936Z,62.39
2023-03-15T03:19:45.353Z,62.27
2023-03-15T03:22:13.437Z,62.10
2023-03-15T03:24:46.017Z,61.86
2023-03-15T03:27:17.434Z,62.03
2023-03-15T03:29:46.126Z,61.35
2023-03-15T03:32:12.990Z,61.35
2023-03-15T03:34:39.545Z,61.36
2023-03-15T03:37:06.731Z,60.50
2023-03-15T03:39:51.031Z,60.89
2023-03-15T03:42:18.052Z,60.73
2023-03-15T03:44:44.608Z,60.84
2023-03-15T03:47:11.761Z,60.87
2023-03-15T03:49:38.468Z,61.10
2023-03-15T03:52:05.145Z,61.04
2023-03-15T03:54:32.150Z,61.08
2023-03-15T03:56:58.992Z,60.97
2023-03-15T03:59:29.511Z,60.96
2023-03-15T04:02:02.239Z,61.08
2023-03-15T04:04:29.899Z,61.42
2023-03-15T04:06:57.275Z,61.45
2023-03-15T04:09:37.282Z,61.47
2023-03-15T04:12:05.323Z,61.85
2023-03-15T04:14:33.335Z,61.93
2023-03-15T04:16:59.907Z,61.86
2023-03-15T04:19:26.991Z,62.10
2023-03-15T04:21:53.612Z,62.01
2023-03-15T04:24:29.051Z,62.04
2023-03-15T04:27:05.480Z,62.10
2023-03-15T04:30:05.336Z,61.78
2023-03-15T04:32:38.288Z,62.03
2023-03-15T04:35:14.144Z,61.72
2023-03-15T04:38:02.272Z,61.78
2023-03-15T04:40:42.860Z,61.23
2023-03-15T04:43:22.299Z,61.28
2023-03-15T04:46:25.119Z,61.19
2023-03-15T04:49:06.946Z,61.34
2023-03-15T04:51:47.785Z,60.52
2023-03-15T04:54:40.218Z,61.34
2023-03-15T04:57:20.115Z,60.99
2023-03-15T05:00:08.090Z,60.88
2023-03-15T05:03:09.917Z,60.63
2023-03-15T05:05:55.207Z,60.64
2023-03-15T05:08:47.829Z,60.34
2023-03-15T05:11:32.729Z,60.24
2023-03-15T05:14:22.152Z,59.67
2023-03-15T05:17:23.975Z,60.31
2023-03-15T05:20:12.680Z,59.44
2023-03-15T05:22:49.968Z,58.40
2023-03-15T05:25:37.627Z,58.10
2023-03-15T05:28:07.849Z,57.43
2023-03-15T05:31:00.500Z,58.00
2023-03-15T05:33:50.200Z,57.80
2023-03-15T05:36:34.989Z,57.49
2023-03-15T05:39:17.387Z,57.93
2023-03-15T05:42:08.172Z,57.32
2023-03-15T05:44:57.888Z,57.09
2023-03-15T05:47:47.311Z,57.13
2023-03-15T05:50:24.830Z,56.96
2023-03-15T05:53:09.969Z,57.10
2023-03-15T05:55:58.590Z,56.72
2023-03-15T05:58:37.087Z,56.67
2023-03-15T06:01:34.239Z,56.40
2023-03-15T06:04:10.099Z,56.74
2023-03-15T06:06:36.812Z,56.87
2023-03-15T06:09:06.165Z,55.90
2023-03-15T06:11:32.876Z,56.34
2023-03-15T06:14:00.789Z,55.99
2023-03-15T06:16:56.506Z,56.48
2023-03-15T06:19:25.150Z,55.68
2023-03-15T06:21:54.020Z,55.95
2023-03-15T06:24:26.455Z,56.43
2023-03-15T06:26:54.827Z,56.00
2023-03-15T06:29:22.681Z,55.82
2023-03-15T06:31:52.837Z,55.64
2023-03-15T06:34:21.067Z,55.91
2023-03-15T06:36:48.668Z,55.96
2023-03-15T06:39:15.324Z,55.61
2023-03-15T06:41:42.307Z,55.66
2023-03-15T06:44:14.094Z,55.49
2023-03-15T06:46:41.574Z,55.40
2023-03-15T06:49:08.105Z,55.27
2023-03-15T06:51:35.609Z,54.34
2023-03-15T06:54:02.988Z,54.76
2023-03-15T06:56:31.392Z,54.90
2023-03-15T06:58:57.948Z,54.44
2023-03-15T07:01:24.410Z,54.48
2023-03-15T07:03:50.864Z,54.79
2023-03-15T07:06:17.409Z,54.41
2023-03-15T07:08:43.984Z,53.93
2023-03-15T07:11:11.097Z,53.99
2023-03-15T07:13:37.629Z,53.47
2023-03-15T07:16:04.345Z,53.54
2023-03-15T07:18:32.272Z,52.89
2023-03-15T07:20:59.589Z,52.81
2023-03-15T07:23:26.946Z,52.74
2023-03-15T07:25:55.523Z,52.31
2023-03-15T07:28:22.815Z,52.31
2023-03-15T07:30:56.373Z,52.07
2023-03-15T07:33:23.532Z,51.47
2023-03-15T07:35:50.797Z,50.70
2023-03-15T07:38:17.401Z,50.17
2023-03-15T07:40:43.989Z,49.80
2023-03-15T07:43:10.780Z,48.82
2023-03-15T07:45:37.286Z,49.59
2023-03-15T07:48:04.186Z,48.95
2023-03-15T07:50:30.716Z,48.88
2023-03-15T07:52:57.144Z,48.46
2023-03-15T07:55:23.842Z,49.22
2023-03-15T07:57:52.810Z,48.28
2023-03-15T08:00:19.979Z,48.55
2023-03-15T08:02:46.626Z,48.88
2023-03-15T08:05:13.068Z,48.98
2023-03-15T08:07:39.693Z,49.24
2023-03-15T08:10:06.636Z,49.14
2023-03-15T08:12:35.056Z,48.44
2023-03-15T08:15:01.630Z,48.74
2023-03-15T08:17:28.316Z,48.08
2023-03-15T08:19:54.766Z,47.15
2023-03-15T08:22:21.272Z,46.03
2023-03-15T08:24:48.200Z,45.11
2023-03-15T08:27:14.919Z,45.63
2023-03-15T08:29:41.484Z,45.87
2023-03-15T08:32:08.317Z,45.12
2023-03-15T08:34:34.994Z,45.56
2023-03-15T08:37:01.629Z,45.39
2023-03-15T08:39:28.085Z,43.54
2023-03-15T08:41:54.606Z,43.42
2023-03-15T08:44:21.154Z,43.55
2023-03-15T08:46:47.768Z,42.77
2023-03-15T08:49:14.250Z,43.04
2023-03-15T08:51:40.997Z,42.79
2023-03-15T08:54:07.535Z,43.56
2023-03-15T08:56:34.042Z,44.13
2023-03-15T08:59:00.631Z,44.43
2023-03-15T09:01:27.083Z,43.86
2023-03-15T09:03:53.649Z,44.46
2023-03-15T09:06:20.318Z,44.65
2023-03-15T09:08:46.877Z,44.41
2023-03-15T09:11:13.857Z,44.52
2023-03-15T09:13:40.489Z,44.94
2023-03-15T09:16:07.832Z,44.81
2023-03-15T09:18:34.372Z,44.88
2023-03-15T09:21:01.707Z,44.57
2023-03-15T09:23:28.219Z,44.44
2023-03-15T09:25:54.675Z,44.61
2023-03-15T09:28:21.260Z,43.63
2023-03-15T09:30:47.773Z,44.66
2023-03-15T09:33:14.934Z,43.34
2023-03-15T09:35:42.161Z,42.96
2023-03-15T09:38:08.911Z,43.17
2023-03-15T09:40:40.057Z,43.03
2023-03-15T09:43:06.557Z,43.52
2023-03-15T09:45:45.151Z,43.82
2023-03-15T09:48:14.470Z,42.65
2023-03-15T09:50:50.415Z,43.43
2023-03-15T09:53:21.104Z,42.93
2023-03-15T09:55:48.678Z,42.40
2023-03-15T09:58:21.400Z,42.42
2023-03-15T10:00:51.000Z,40.94
2023-03-15T10:03:20.339Z,41.83
2023-03-15T10:05:49.856Z,41.58
2023-03-15T10:08:17.957Z,39.60
2023-03-15T10:10:49.462Z,40.69
2023-03-15T10:13:25.714Z,40.70
2023-03-15T10:16:06.442Z,40.11
2023-03-15T10:18:42.377Z,39.63
2023-03-15T10:21:14.135Z,40.58
2023-03-15T10:23:49.815Z,39.69
2023-03-15T10:26:18.972Z,39.34
2023-03-15T10:28:45.621Z,38.39
2023-03-15T10:31:25.669Z,37.49
2023-03-15T10:33:59.207Z,38.49
2023-03-15T10:36:26.360Z,38.25
2023-03-15T10:38:52.859Z,38.19
2023-03-15T10:41:38.207Z,38.15
2023-03-15T10:44:06.168Z,37.78
2023-03-15T10:46:33.640Z,38.62
2023-03-15T10:49:06.394Z,37.09
2023-03-15T10:51:37.373Z,37.59
2023-03-15T10:54:11.510Z,37.58
2023-03-15T10:56:44.107Z,37.24
2023-03-15T10:59:15.613Z,38.02
2023-03-15T11:01:42.220Z,35.83
2023-03-15T11:04:16.339Z,36.85
2023-03-15T11:06:45.418Z,36.37
2023-03-15T11:09:20.416Z,36.56
2023-03-15T11:11:59.263Z,36.09
2023-03-15T11:14:27.218Z,36.75
2023-03-15T11:16:55.589Z,36.73
2023-03-15T11:19:32.705Z,36.49
2023-03-15T11:22:01.328Z,36.54
2023-03-15T11:24:32.320Z,36.56
2023-03-15T11:27:01.665Z,36.19
2023-03-15T11:29:32.518Z,36.04
2023-03-15T11:32:00.894Z,35.42
2023-03-15T11:34:35.452Z,35.84
2023-03-15T11:37:09.135Z,35.90
2023-03-15T11:39:50.252Z,35.20
2023-03-15T11:42:25.237Z,34.45
2023-03-15T11:44:55.134Z,34.72
2023-03-15T11:47:27.761Z,34.21
2023-03-15T11:49:54.963Z,34.57
2023-03-15T11:52:23.375Z,35.31
2023-03-15T11:54:50.411Z,35.01
2023-03-15T11:57:28.854Z,35.46
2023-03-15T11:59:56.405Z,35.34
2023-03-15T12:02:23.042Z,35.81
2023-03-15T12:04:49.667Z,35.96
2023-03-15T12:07:16.114Z,35.28
2023-03-15T12:09:49.781Z,36.08
2023-03-15T12:12:25.803Z,35.59
2023-03-15T12:15:01.244Z,36.00
2023-03-15T12:17:27.708Z,35.77
2023-03-15T12:20:13.158Z,35.75
2023-03-15T12:22:50.025Z,36.50
2023-03-15T12:25:19.515Z,36.61
2023-03-15T12:27:50.946Z,36.73
2023-03-15T12:30:22.688Z,36.06
2023-03-15T12:32:52.173Z,36.67
2023-03-15T12:35:20.168Z,36.75
2023-03-15T12:37:48.739Z,35.88
2023-03-15T12:40:15.169Z,36.76
2023-03-15T12:42:41.613Z,36.09
2023-03-15T12:45:17.557Z,35.59
2023-03-15T12:47:50.245Z,35.85
2023-03-15T12:50:37.003Z,35.21
2023-03-15T12:53:04.829Z,35.00
2023-03-15T12:55:34.752Z,34.79
2023-03-15T12:58:02.939Z,34.32
2023-03-15T13:00:32.784Z,34.97
2023-03-15T13:03:04.227Z,35.83
2023-03-15T13:05:45.253Z,35.24
2023-03-15T13:08:21.854Z,35.14
2023-03-15T13:10:51.052Z,35.20
2023-03-15T13:13:30.761Z,35.67
2023-03-15T13:15:57.300Z,35.35
2023-03-15T13:18:24.443Z,35.60
2023-03-15T13:20:51.842Z,36.31
2023-03-15T13:23:18.458Z,36.67
2023-03-15T13:25:50.923Z,36.35
2023-03-15T13:28:25.665Z,35.97
2023-03-15T13:30:53.650Z,36.35
2023-03-15T13:33:22.302Z,36.85
2023-03-15T13:35:55.081Z,36.43
2023-03-15T13:38:23.790Z,35.40
2023-03-15T13:40:50.504Z,36.01
2023-03-15T13:43:17.023Z,35.72
2023-03-15T13:45:44.283Z,35.35
2023-03-15T13:48:13.314Z,35.78
2023-03-15T13:50:40.615Z,35.87
2023-03-15T13:53:07.227Z,36.62
2023-03-15T13:55:34.908Z,36.67
2023-03-15T13:58:05.449Z,36.12
2023-03-15T14:00:33.878Z,36.68
2023-03-15T14:03:11.559Z,36.62
2023-03-15T14:05:46.162Z,36.25
2023-03-15T14:08:21.662Z,35.36
2023-03-15T14:11:03.608Z,35.80
2023-03-15T14:13:32.417Z,35.93
2023-03-15T14:16:06.848Z,35.59
2023-03-15T14:18:37.904Z,36.14
2023-03-15T14:21:21.795Z,35.46
2023-03-15T14:23:49.435Z,34.99
2023-03-15T14:26:26.939Z,35.17
2023-03-15T14:28:56.567Z,34.68
2023-03-15T14:31:28.503Z,34.98
2023-03-15T14:33:56.871Z,34.88
2023-03-15T14:36:25.524Z,34.45
2023-03-15T14:38:53.912Z,35.03
2023-03-15T14:41:23.892Z,34.48
2023-03-15T14:43:50.518Z,34.60
2023-03-15T14:46:17.121Z,35.21
2023-03-15T14:48:43.741Z,35.33
2023-03-15T14:51:15.858Z,34.95
2023-03-15T14:53:43.276Z,34.53
2023-03-15T14:56:13.734Z,33.69
2023-03-15T14:58:41.199Z,34.25
2023-03-15T15:01:10.069Z,33.79
2023-03-15T15:03:38.638Z,34.06
2023-03-15T15:06:06.879Z,34.53
2023-03-15T15:08:33.949Z,34.43
2023-03-15T15:11:00.669Z,34.43
2023-03-15T15:13:28.383Z,34.45
2023-03-15T15:15:56.766Z,35.30
2023-03-15T15:18:27.654Z,35.15
2023-03-15T15:20:56.063Z,35.30
2023-03-15T15:23:25.878Z,33.97
2023-03-15T15:25:54.323Z,34.64
2023-03-15T15:28:33.271Z,34.70
2023-03-15T15:31:00.947Z,34.84
2023-03-15T15:33:27.444Z,34.89
2023-03-15T15:35:55.047Z,35.01
2023-03-15T15:38:23.309Z,34.36
2023-03-15T15:40:49.849Z,34.21
2023-03-15T15:43:16.798Z,34.15
2023-03-15T15:45:43.364Z,34.13
2023-03-15T15:48:09.990Z,34.32
2023-03-15T15:50:36.884Z,34.61
2023-03-15T15:53:05.112Z,34.53
2023-03-15T15:55:35.630Z,35.13
2023-03-15T15:58:03.025Z,34.49
2023-03-15T16:00:30.039Z,34.40
2023-03-15T16:02:57.078Z,34.32
2023-03-15T16:05:27.272Z,33.87
2023-03-15T16:07:55.268Z,34.31
2023-03-15T16:10:26.287Z,35.23
2023-03-15T16:12:54.453Z,34.88
2023-03-15T16:15:20.930Z,35.38
2023-03-15T16:17:47.613Z,34.95
2023-03-15T16:20:15.232Z,35.23
2023-03-15T16:22:43.809Z,35.15
2023-03-15T16:25:14.354Z,35.12
2023-03-15T16:27:41.095Z,35.22
2023-03-15T16:30:09.232Z,35.33
2023-03-15T16:32:44.490Z,35.79
2023-03-15T16:35:15.516Z,36.16
2023-03-15T16:37:42.790Z,36.27
2023-03-15T16:40:14.908Z,36.70
2023-03-15T16:42:41.370Z,36.55
2023-03-15T16:45:12.655Z,36.68
2023-03-15T16:47:39.340Z,37.09
2023-03-15T16:50:06.053Z,37.36
2023-03-15T16:52:33.068Z,37.51
2023-03-15T16:55:01.083Z,37.64
2023-03-15T16:57:27.666Z,42.51
2023-03-15T16:59:56.460Z,38.97
2023-03-15T17:02:24.721Z,38.49
2023-03-15T17:04:52.900Z,38.39
2023-03-15T17:07:22.546Z,38.31
2023-03-15T17:09:49.669Z,38.50
2023-03-15T17:12:22.718Z,38.25
2023-03-15T17:14:49.479Z,38.33
2023-03-15T17:17:15.990Z,38.49
2023-03-15T17:19:43.674Z,38.78
2023-03-15T17:22:10.277Z,39.34
2023-03-15T17:24:36.790Z,38.69
2023-03-15T17:27:03.585Z,38.81
2023-03-15T17:29:30.023Z,39.20
2023-03-15T17:31:56.673Z,38.85
2023-03-15T17:34:23.388Z,38.73
2023-03-15T17:36:50.642Z,39.41
2023-03-15T17:39:17.224Z,39.28
2023-03-15T17:41:45.750Z,40.02
2023-03-15T17:44:12.289Z,39.75
2023-03-15T17:46:38.830Z,39.59
2023-03-15T17:49:07.063Z,40.20
2023-03-15T17:51:34.798Z,40.40
2023-03-15T17:54:01.801Z,40.29
2023-03-15T17:56:29.222Z,40.47
2023-03-15T17:58:55.828Z,40.96
2023-03-15T18:01:23.962Z,41.03
2023-03-15T18:03:50.918Z,41.85
2023-03-15T18:06:18.214Z,41.58
2023-03-15T18:08:45.410Z,42.08
2023-03-15T18:11:23.616Z,42.69
2023-03-15T18:13:50.519Z,43.06
2023-03-15T18:16:17.047Z,43.35
2023-03-15T18:18:43.609Z,43.35
2023-03-15T18:21:12.035Z,43.38
2023-03-15T18:23:38.538Z,43.38
2023-03-15T18:26:05.112Z,43.56
2023-03-15T18:28:31.666Z,43.44
2023-03-15T18:30:58.239Z,43.15
2023-03-15T18:33:27.348Z,43.21
2023-03-15T18:35:53.920Z,43.48
2023-03-15T18:38:21.918Z,43.42
2023-03-15T18:40:51.095Z,43.98
2023-03-15T18:43:18.043Z,44.78
2023-03-15T18:45:44.682Z,45.58
2023-03-15T18:48:11.190Z,46.04
2023-03-15T18:50:37.726Z,46.58
2023-03-15T18:53:06.179Z,46.88
2023-03-15T18:55:33.148Z,47.75
2023-03-15T18:57:59.790Z,48.91
2023-03-15T19:00:31.566Z,48.27
2023-03-15T19:03:01.075Z,48.79
2023-03-15T19:05:28.855Z,49.24
2023-03-15T19:07:55.418Z,49.42
2023-03-15T19:10:22.676Z,48.37
2023-03-15T19:12:49.465Z,49.23
2023-03-15T19:15:17.631Z,49.34
2023-03-15T19:17:44.989Z,49.83
2023-03-15T19:20:12.385Z,49.93
2023-03-15T19:22:39.631Z,50.60
2023-03-15T19:25:06.569Z,50.64
2023-03-15T19:27:33.048Z,50.64
2023-03-15T19:29:59.555Z,50.38
2023-03-15T19:32:26.073Z,49.85
2023-03-15T19:34:52.911Z,49.98
2023-03-15T19:37:19.362Z,49.67
2023-03-15T19:39:45.901Z,50.20
2023-03-15T19:42:12.420Z,50.08
2023-03-15T19:44:42.706Z,50.73
2023-03-15T19:47:09.673Z,50.49
2023-03-15T19:49:36.554Z,50.35
2023-03-15T19:52:05.548Z,50.75
2023-03-15T19:54:34.031Z,51.02
2023-03-15T19:57:00.888Z,51.15
2023-03-15T19:59:27.386Z,51.80
2023-03-15T20:01:53.933Z,51.90
2023-03-15T20:04:20.598Z,52.57
2023-03-15T20:06:47.126Z,53.01
2023-03-15T20:09:13.559Z,53.28
2023-03-15T20:11:40.282Z,53.52
2023-03-15T20:14:06.801Z,53.89
2023-03-15T20:16:33.387Z,54.19
2023-03-15T20:18:59.963Z,54.21
2023-03-15T20:21:26.453Z,54.97
2023-03-15T20:23:55.811Z,55.43
2023-03-15T20:26:22.516Z,55.55
2023-03-15T20:28:53.442Z,55.66
2023-03-15T20:31:20.121Z,56.00
2023-03-15T20:33:48.298Z,56.46
2023-03-15T20:36:17.470Z,56.81
2023-03-15T20:38:46.736Z,57.33
2023-03-15T20:41:14.460Z,57.71
2023-03-15T20:43:41.544Z,58.09
2023-03-15T20:46:09.851Z,58.38
2023-03-15T20:48:36.796Z,58.95
2023-03-15T20:51:04.078Z,59.20
2023-03-15T20:53:34.560Z,59.50
2023-03-15T20:56:01.463Z,59.46
2023-03-15T20:58:28.145Z,59.82
2023-03-15T21:01:02.554Z,60.13
2023-03-15T21:03:31.259Z,60.18
2023-03-15T21:05:57.820Z,60.77
2023-03-15T21:08:24.413Z,61.20
2023-03-15T21:10:52.856Z,61.49
2023-03-15T21:13:19.298Z,61.87
2023-03-15T21:15:46.017Z,62.63
2023-03-15T21:18:16.634Z,63.04
2023-03-15T21:20:43.438Z,63.42
2023-03-15T21:23:10.979Z,63.58
2023-03-15T21:25:37.777Z,63.79
2023-03-15T21:28:04.586Z,64.35
2023-03-15T21:30:32.087Z,64.47
2023-03-15T21:32:58.917Z,64.81
2023-03-15T21:35:26.182Z,64.72
2023-03-15T21:37:55.369Z,64.96
2023-03-15T21:40:22.070Z,64.81
2023-03-15T21:42:48.718Z,64.96
2023-03-15T21:45:16.327Z,65.22
2023-03-15T21:47:45.933Z,65.50
2023-03-15T21:50:12.807Z,65.80
2023-03-15T21:52:39.460Z,65.90
2023-03-15T21:55:06.389Z,66.50
2023-03-15T21:57:33.778Z,66.70
2023-03-15T22:00:01.213Z,67.10
2023-03-15T22:02:27.837Z,67.36
2023-03-15T22:04:54.581Z,67.50
2023-03-15T22:07:21.106Z,68.00
2023-03-15T22:09:47.916Z,68.30
2023-03-15T22:12:15.560Z,68.63
2023-03-15T22:14:42.456Z,69.18
2023-03-15T22:17:09.064Z,69.42
2023-03-15T22:19:35.691Z,70.03
2023-03-15T22:22:02.157Z,70.32
2023-03-15T22:24:28.994Z,70.97
2023-03-15T22:26:56.165Z,71.54
2023-03-15T22:29:22.733Z,71.48
2023-03-15T22:31:49.228Z,71.83
2023-03-15T22:34:15.711Z,71.99
2023-03-15T22:36:42.720Z,72.67
2023-03-15T22:39:09.719Z,72.40
2023-03-15T22:41:36.631Z,71.88
2023-03-15T22:44:03.252Z,71.96
2023-03-15T22:46:34.887Z,72.30
2023-03-15T22:49:01.768Z,72.46
2023-03-15T22:51:28.309Z,72.33
2023-03-15T22:53:54.876Z,72.86
2023-03-15T22:56:21.799Z,72.82
2023-03-15T22:58:48.762Z,73.20
2023-03-15T23:01:15.421Z,73.28
2023-03-15T23:03:43.064Z,73.28
2023-03-15T23:06:09.740Z,73.81
2023-03-15T23:08:36.433Z,73.78
2023-03-15T23:11:03.866Z,73.99
2023-03-15T23:13:30.353Z,74.68
2023-03-15T23:15:56.991Z,74.61
2023-03-15T23:18:23.576Z,74.48
2023-03-15T23:20:50.071Z,74.09
2023-03-15T23:23:16.550Z,74.04
2023-03-15T23:25:43.238Z,74.10
2023-03-15T23:28:09.805Z,73.90
2023-03-15T23:30:36.589Z,74.12
2023-03-15T23:33:03.685Z,73.95
2023-03-15T23:35:31.467Z,73.78
2023-03-15T23:37:58.034Z,73.94
2023-03-15T23:40:25.756Z,73.65
2023-03-15T23:42:59.012Z,73.53
2023-03-15T23:45:27.212Z,73.22
2023-03-15T23:47:53.727Z,72.95
2023-03-15T23:50:20.453Z,73.01
2023-03-15T23:52:46.951Z,72.37
2023-03-15T23:55:13.411Z,72.26
2023-03-15T23:57:40.329Z,71.67
